sensor_id;sensor_type;location;lat;lon;timestamp;P1;durP1;ratioP1;P2;durP2;ratioP2
14698;SDS011;7439;50.804;4.602;2023-02-08T00:02:01;44.17;;;29.20;;
14698;SDS011;7439;50.804;4.602;2023-02-08T00:04:29;35.57;;;25.53;;
14698;SDS011;7439;50.804;4.602;2023-02-08T00:06:56;38.40;;;26.73;;
14698;SDS011;7439;50.804;4.602;2023-02-08T00:09:25;39.77;;;26.17;;
14698;SDS011;7439;50.804;4.602;2023-02-08T00:11:52;35.03;;;24.90;;
14698;SDS011;7439;50.804;4.602;2023-02-08T00:14:20;36.77;;;25.40;;
14698;SDS011;7439;50.804;4.602;2023-02-08T00:16:47;34.20;;;24.77;;
14698;SDS011;7439;50.804;4.602;2023-02-08T00:19:14;41.13;;;27.33;;
14698;SDS011;7439;50.804;4.602;2023-02-08T00:21:42;37.23;;;25.50;;
14698;SDS011;7439;50.804;4.602;2023-02-08T00:24:09;39.87;;;25.90;;
14698;SDS011;7439;50.804;4.602;2023-02-08T00:26:38;34.40;;;25.57;;
14698;SDS011;7439;50.804;4.602;2023-02-08T00:29:06;36.00;;;25.27;;
14698;SDS011;7439;50.804;4.602;2023-02-08T00:31:33;41.03;;;25.03;;
14698;SDS011;7439;50.804;4.602;2023-02-08T00:34:00;39.40;;;26.40;;
14698;SDS011;7439;50.804;4.602;2023-02-08T00:36:28;34.53;;;24.97;;
14698;SDS011;7439;50.804;4.602;2023-02-08T00:38:55;34.53;;;24.73;;
14698;SDS011;7439;50.804;4.602;2023-02-08T00:41:23;35.17;;;24.40;;
14698;SDS011;7439;50.804;4.602;2023-02-08T00:43:51;37.90;;;24.80;;
14698;SDS011;7439;50.804;4.602;2023-02-08T00:46:19;37.97;;;25.30;;
14698;SDS011;7439;50.804;4.602;2023-02-08T00:48:46;34.33;;;25.37;;
14698;SDS011;7439;50.804;4.602;2023-02-08T00:51:14;45.90;;;29.37;;
14698;SDS011;7439;50.804;4.602;2023-02-08T00:53:42;43.90;;;28.97;;
14698;SDS011;7439;50.804;4.602;2023-02-08T00:56:10;39.97;;;26.30;;
14698;SDS011;7439;50.804;4.602;2023-02-08T00:58:38;35.93;;;26.53;;
14698;SDS011;7439;50.804;4.602;2023-02-08T01:01:07;39.67;;;27.73;;
14698;SDS011;7439;50.804;4.602;2023-02-08T01:03:35;44.17;;;27.43;;
14698;SDS011;7439;50.804;4.602;2023-02-08T01:06:03;43.33;;;29.23;;
14698;SDS011;7439;50.804;4.602;2023-02-08T01:08:30;40.50;;;27.60;;
14698;SDS011;7439;50.804;4.602;2023-02-08T01:11:01;42.47;;;27.80;;
14698;SDS011;7439;50.804;4.602;2023-02-08T01:13:28;45.53;;;28.50;;
14698;SDS011;7439;50.804;4.602;2023-02-08T01:16:03;41.43;;;28.93;;
14698;SDS011;7439;50.804;4.602;2023-02-08T01:18:33;42.70;;;26.40;;
14698;SDS011;7439;50.804;4.602;2023-02-08T01:21:04;34.53;;;25.47;;
14698;SDS011;7439;50.804;4.602;2023-02-08T01:23:32;38.37;;;27.20;;
14698;SDS011;7439;50.804;4.602;2023-02-08T01:26:00;36.83;;;25.37;;
14698;SDS011;7439;50.804;4.602;2023-02-08T01:28:28;36.30;;;26.20;;
14698;SDS011;7439;50.804;4.602;2023-02-08T01:30:55;36.63;;;27.67;;
14698;SDS011;7439;50.804;4.602;2023-02-08T01:33:22;43.83;;;28.33;;
14698;SDS011;7439;50.804;4.602;2023-02-08T01:35:52;45.67;;;29.27;;
14698;SDS011;7439;50.804;4.602;2023-02-08T01:38:20;43.37;;;27.00;;
14698;SDS011;7439;50.804;4.602;2023-02-08T01:40:47;39.27;;;25.00;;
14698;SDS011;7439;50.804;4.602;2023-02-08T01:43:17;35.80;;;24.10;;
14698;SDS011;7439;50.804;4.602;2023-02-08T01:45:46;36.60;;;24.43;;
14698;SDS011;7439;50.804;4.602;2023-02-08T01:48:14;37.63;;;24.60;;
14698;SDS011;7439;50.804;4.602;2023-02-08T01:50:44;40.43;;;26.33;;
14698;SDS011;7439;50.804;4.602;2023-02-08T01:53:14;34.57;;;25.67;;
14698;SDS011;7439;50.804;4.602;2023-02-08T01:55:43;35.67;;;25.17;;
14698;SDS011;7439;50.804;4.602;2023-02-08T01:58:12;41.83;;;26.43;;
14698;SDS011;7439;50.804;4.602;2023-02-08T02:00:40;36.10;;;25.03;;
14698;SDS011;7439;50.804;4.602;2023-02-08T02:03:07;39.13;;;26.33;;
14698;SDS011;7439;50.804;4.602;2023-02-08T02:05:37;33.80;;;24.33;;
14698;SDS011;7439;50.804;4.602;2023-02-08T02:08:05;39.27;;;25.13;;
14698;SDS011;7439;50.804;4.602;2023-02-08T02:10:34;40.87;;;26.63;;
14698;SDS011;7439;50.804;4.602;2023-02-08T02:13:03;44.50;;;26.60;;
14698;SDS011;7439;50.804;4.602;2023-02-08T02:15:32;37.27;;;25.13;;
14698;SDS011;7439;50.804;4.602;2023-02-08T02:18:00;37.77;;;24.17;;
14698;SDS011;7439;50.804;4.602;2023-02-08T02:20:32;37.00;;;25.53;;
14698;SDS011;7439;50.804;4.602;2023-02-08T02:23:14;45.60;;;27.13;;
14698;SDS011;7439;50.804;4.602;2023-02-08T02:26:03;34.30;;;24.00;;
14698;SDS011;7439;50.804;4.602;2023-02-08T02:28:41;41.67;;;26.03;;
14698;SDS011;7439;50.804;4.602;2023-02-08T02:31:24;39.67;;;27.47;;
14698;SDS011;7439;50.804;4.602;2023-02-08T02:33:55;39.23;;;26.23;;
14698;SDS011;7439;50.804;4.602;2023-02-08T02:36:27;36.53;;;24.83;;
14698;SDS011;7439;50.804;4.602;2023-02-08T02:39:00;40.80;;;24.17;;
14698;SDS011;7439;50.804;4.602;2023-02-08T02:41:32;34.83;;;24.27;;
14698;SDS011;7439;50.804;4.602;2023-02-08T02:44:22;36.10;;;23.93;;
14698;SDS011;7439;50.804;4.602;2023-02-08T02:46:55;36.37;;;25.53;;
14698;SDS011;7439;50.804;4.602;2023-02-08T02:49:26;35.80;;;25.63;;
14698;SDS011;7439;50.804;4.602;2023-02-08T02:51:56;37.40;;;25.23;;
14698;SDS011;7439;50.804;4.602;2023-02-08T02:54:25;36.70;;;25.83;;
14698;SDS011;7439;50.804;4.602;2023-02-08T02:56:54;33.30;;;25.80;;
14698;SDS011;7439;50.804;4.602;2023-02-08T02:59:22;32.97;;;23.03;;
14698;SDS011;7439;50.804;4.602;2023-02-08T03:01:49;32.00;;;21.83;;
14698;SDS011;7439;50.804;4.602;2023-02-08T03:07:04;35.67;;;23.20;;
14698;SDS011;7439;50.804;4.602;2023-02-08T03:09:35;36.30;;;23.03;;
14698;SDS011;7439;50.804;4.602;2023-02-08T03:12:08;33.50;;;21.93;;
14698;SDS011;7439;50.804;4.602;2023-02-08T03:14:39;34.37;;;21.97;;
14698;SDS011;7439;50.804;4.602;2023-02-08T03:17:26;33.07;;;24.03;;
14698;SDS011;7439;50.804;4.602;2023-02-08T03:19:59;37.67;;;24.77;;
14698;SDS011;7439;50.804;4.602;2023-02-08T03:22:30;33.83;;;23.17;;
14698;SDS011;7439;50.804;4.602;2023-02-08T03:25:00;34.03;;;23.00;;
14698;SDS011;7439;50.804;4.602;2023-02-08T03:27:30;37.53;;;23.40;;
14698;SDS011;7439;50.804;4.602;2023-02-08T03:30:00;37.53;;;23.00;;
14698;SDS011;7439;50.804;4.602;2023-02-08T03:32:31;34.10;;;24.47;;
14698;SDS011;7439;50.804;4.602;2023-02-08T03:35:03;31.63;;;21.50;;
14698;SDS011;7439;50.804;4.602;2023-02-08T03:37:33;31.93;;;22.87;;
14698;SDS011;7439;50.804;4.602;2023-02-08T03:40:05;34.20;;;23.07;;
14698;SDS011;7439;50.804;4.602;2023-02-08T03:42:33;32.50;;;21.87;;
14698;SDS011;7439;50.804;4.602;2023-02-08T03:45:02;30.23;;;21.83;;
14698;SDS011;7439;50.804;4.602;2023-02-08T03:47:32;35.90;;;24.17;;
14698;SDS011;7439;50.804;4.602;2023-02-08T03:50:03;34.37;;;24.10;;
14698;SDS011;7439;50.804;4.602;2023-02-08T03:52:30;31.17;;;22.73;;
14698;SDS011;7439;50.804;4.602;2023-02-08T03:55:01;33.07;;;22.03;;
14698;SDS011;7439;50.804;4.602;2023-02-08T03:57:29;36.17;;;22.73;;
14698;SDS011;7439;50.804;4.602;2023-02-08T03:59:59;36.93;;;21.67;;
14698;SDS011;7439;50.804;4.602;2023-02-08T04:02:28;30.57;;;21.30;;
14698;SDS011;7439;50.804;4.602;2023-02-08T04:04:56;34.43;;;22.47;;
14698;SDS011;7439;50.804;4.602;2023-02-08T04:07:24;35.97;;;23.97;;
14698;SDS011;7439;50.804;4.602;2023-02-08T04:09:51;32.60;;;21.20;;
14698;SDS011;7439;50.804;4.602;2023-02-08T04:12:20;33.37;;;21.17;;
14698;SDS011;7439;50.804;4.602;2023-02-08T04:14:47;33.00;;;23.07;;
14698;SDS011;7439;50.804;4.602;2023-02-08T04:17:15;31.07;;;21.20;;
14698;SDS011;7439;50.804;4.602;2023-02-08T04:19:42;33.40;;;22.73;;
14698;SDS011;7439;50.804;4.602;2023-02-08T04:22:10;37.07;;;23.17;;
14698;SDS011;7439;50.804;4.602;2023-02-08T04:24:37;36.33;;;22.87;;
14698;SDS011;7439;50.804;4.602;2023-02-08T04:27:05;30.07;;;21.67;;
14698;SDS011;7439;50.804;4.602;2023-02-08T04:29:34;33.17;;;23.30;;
14698;SDS011;7439;50.804;4.602;2023-02-08T04:32:01;33.17;;;21.57;;
14698;SDS011;7439;50.804;4.602;2023-02-08T04:34:29;38.57;;;22.60;;
14698;SDS011;7439;50.804;4.602;2023-02-08T04:36:56;36.33;;;22.97;;
14698;SDS011;7439;50.804;4.602;2023-02-08T04:39:24;38.67;;;24.57;;
14698;SDS011;7439;50.804;4.602;2023-02-08T04:41:51;34.97;;;23.83;;
14698;SDS011;7439;50.804;4.602;2023-02-08T04:44:18;35.57;;;23.23;;
14698;SDS011;7439;50.804;4.602;2023-02-08T04:46:47;36.53;;;23.30;;
14698;SDS011;7439;50.804;4.602;2023-02-08T04:49:15;33.07;;;22.07;;
14698;SDS011;7439;50.804;4.602;2023-02-08T04:51:42;31.10;;;21.50;;
14698;SDS011;7439;50.804;4.602;2023-02-08T04:54:09;31.77;;;21.27;;
14698;SDS011;7439;50.804;4.602;2023-02-08T04:56:37;31.90;;;22.33;;
14698;SDS011;7439;50.804;4.602;2023-02-08T04:59:04;29.70;;;21.63;;
14698;SDS011;7439;50.804;4.602;2023-02-08T05:01:32;37.57;;;23.90;;
14698;SDS011;7439;50.804;4.602;2023-02-08T05:04:00;31.70;;;22.00;;
14698;SDS011;7439;50.804;4.602;2023-02-08T05:06:28;28.63;;;21.17;;
14698;SDS011;7439;50.804;4.602;2023-02-08T05:08:55;31.00;;;22.23;;
14698;SDS011;7439;50.804;4.602;2023-02-08T05:11:25;32.60;;;22.00;;
14698;SDS011;7439;50.804;4.602;2023-02-08T05:13:53;32.53;;;21.83;;
14698;SDS011;7439;50.804;4.602;2023-02-08T05:16:20;34.00;;;22.03;;
14698;SDS011;7439;50.804;4.602;2023-02-08T05:18:47;34.00;;;23.00;;
14698;SDS011;7439;50.804;4.602;2023-02-08T05:21:18;34.50;;;23.40;;
14698;SDS011;7439;50.804;4.602;2023-02-08T05:23:47;33.00;;;22.17;;
14698;SDS011;7439;50.804;4.602;2023-02-08T05:26:15;30.87;;;22.63;;
14698;SDS011;7439;50.804;4.602;2023-02-08T05:28:42;31.00;;;22.57;;
14698;SDS011;7439;50.804;4.602;2023-02-08T05:31:11;32.10;;;21.10;;
14698;SDS011;7439;50.804;4.602;2023-02-08T05:33:38;33.30;;;22.43;;
14698;SDS011;7439;50.804;4.602;2023-02-08T05:36:06;31.30;;;22.27;;
14698;SDS011;7439;50.804;4.602;2023-02-08T05:38:35;35.53;;;22.47;;
14698;SDS011;7439;50.804;4.602;2023-02-08T05:41:02;36.77;;;23.83;;
14698;SDS011;7439;50.804;4.602;2023-02-08T05:43:30;31.47;;;23.20;;
14698;SDS011;7439;50.804;4.602;2023-02-08T05:45:57;33.50;;;22.20;;
14698;SDS011;7439;50.804;4.602;2023-02-08T05:48:25;34.03;;;22.47;;
14698;SDS011;7439;50.804;4.602;2023-02-08T05:50:52;35.70;;;22.80;;
14698;SDS011;7439;50.804;4.602;2023-02-08T05:53:20;35.63;;;21.47;;
14698;SDS011;7439;50.804;4.602;2023-02-08T05:55:49;37.17;;;22.07;;
14698;SDS011;7439;50.804;4.602;2023-02-08T05:58:16;33.33;;;23.00;;
14698;SDS011;7439;50.804;4.602;2023-02-08T06:00:43;30.80;;;21.60;;
14698;SDS011;7439;50.804;4.602;2023-02-08T06:03:11;96.63;;;40.23;;
14698;SDS011;7439;50.804;4.602;2023-02-08T06:05:39;58.50;;;29.37;;
14698;SDS011;7439;50.804;4.602;2023-02-08T06:08:06;44.10;;;24.90;;
14698;SDS011;7439;50.804;4.602;2023-02-08T06:10:34;48.13;;;23.70;;
14698;SDS011;7439;50.804;4.602;2023-02-08T06:13:03;42.13;;;24.87;;
14698;SDS011;7439;50.804;4.602;2023-02-08T06:15:30;39.97;;;24.13;;
14698;SDS011;7439;50.804;4.602;2023-02-08T06:17:58;36.17;;;22.07;;
14698;SDS011;7439;50.804;4.602;2023-02-08T06:20:25;39.43;;;22.23;;
14698;SDS011;7439;50.804;4.602;2023-02-08T06:22:53;37.37;;;23.60;;
14698;SDS011;7439;50.804;4.602;2023-02-08T06:25:24;36.23;;;23.57;;
14698;SDS011;7439;50.804;4.602;2023-02-08T06:27:51;48.10;;;26.70;;
14698;SDS011;7439;50.804;4.602;2023-02-08T06:30:20;57.93;;;30.63;;
14698;SDS011;7439;50.804;4.602;2023-02-08T06:32:51;41.20;;;24.73;;
14698;SDS011;7439;50.804;4.602;2023-02-08T06:35:18;56.27;;;25.90;;
14698;SDS011;7439;50.804;4.602;2023-02-08T06:37:45;44.27;;;24.07;;
14698;SDS011;7439;50.804;4.602;2023-02-08T06:40:13;36.20;;;23.57;;
14698;SDS011;7439;50.804;4.602;2023-02-08T06:42:40;46.47;;;25.43;;
14698;SDS011;7439;50.804;4.602;2023-02-08T06:45:08;48.70;;;26.50;;
14698;SDS011;7439;50.804;4.602;2023-02-08T06:47:37;72.20;;;31.90;;
14698;SDS011;7439;50.804;4.602;2023-02-08T06:50:05;89.60;;;35.63;;
14698;SDS011;7439;50.804;4.602;2023-02-08T06:52:32;100.37;;;43.60;;
14698;SDS011;7439;50.804;4.602;2023-02-08T06:54:59;51.50;;;28.53;;
14698;SDS011;7439;50.804;4.602;2023-02-08T06:57:27;80.03;;;44.97;;
14698;SDS011;7439;50.804;4.602;2023-02-08T06:59:54;88.33;;;42.83;;
14698;SDS011;7439;50.804;4.602;2023-02-08T07:02:21;90.03;;;40.27;;
14698;SDS011;7439;50.804;4.602;2023-02-08T07:04:50;60.33;;;32.53;;
14698;SDS011;7439;50.804;4.602;2023-02-08T07:07:17;54.13;;;28.47;;
14698;SDS011;7439;50.804;4.602;2023-02-08T07:09:45;54.93;;;30.43;;
14698;SDS011;7439;50.804;4.602;2023-02-08T07:12:12;61.20;;;28.90;;
14698;SDS011;7439;50.804;4.602;2023-02-08T07:14:40;44.07;;;29.10;;
14698;SDS011;7439;50.804;4.602;2023-02-08T07:17:09;56.83;;;29.47;;
14698;SDS011;7439;50.804;4.602;2023-02-08T07:19:36;51.97;;;32.20;;
14698;SDS011;7439;50.804;4.602;2023-02-08T07:22:05;43.33;;;27.57;;
14698;SDS011;7439;50.804;4.602;2023-02-08T07:24:33;49.93;;;30.37;;
14698;SDS011;7439;50.804;4.602;2023-02-08T07:27:01;56.57;;;32.87;;
14698;SDS011;7439;50.804;4.602;2023-02-08T07:29:28;60.90;;;36.00;;
14698;SDS011;7439;50.804;4.602;2023-02-08T07:31:56;64.17;;;37.37;;
14698;SDS011;7439;50.804;4.602;2023-02-08T07:34:23;59.17;;;35.70;;
14698;SDS011;7439;50.804;4.602;2023-02-08T07:36:51;64.10;;;37.57;;
14698;SDS011;7439;50.804;4.602;2023-02-08T07:39:20;52.13;;;32.67;;
14698;SDS011;7439;50.804;4.602;2023-02-08T07:41:47;49.03;;;32.13;;
14698;SDS011;7439;50.804;4.602;2023-02-08T07:44:14;47.63;;;32.30;;
14698;SDS011;7439;50.804;4.602;2023-02-08T07:46:42;45.17;;;30.47;;
14698;SDS011;7439;50.804;4.602;2023-02-08T07:49:09;62.73;;;29.83;;
14698;SDS011;7439;50.804;4.602;2023-02-08T07:51:36;44.97;;;29.43;;
14698;SDS011;7439;50.804;4.602;2023-02-08T07:54:04;40.80;;;27.43;;
14698;SDS011;7439;50.804;4.602;2023-02-08T07:56:33;45.67;;;29.13;;
14698;SDS011;7439;50.804;4.602;2023-02-08T07:59:00;55.60;;;27.23;;
14698;SDS011;7439;50.804;4.602;2023-02-08T08:01:27;42.93;;;28.73;;
14698;SDS011;7439;50.804;4.602;2023-02-08T08:03:55;53.60;;;28.37;;
14698;SDS011;7439;50.804;4.602;2023-02-08T08:06:22;38.97;;;28.43;;
14698;SDS011;7439;50.804;4.602;2023-02-08T08:08:50;40.40;;;27.90;;
14698;SDS011;7439;50.804;4.602;2023-02-08T08:11:18;41.53;;;27.83;;
14698;SDS011;7439;50.804;4.602;2023-02-08T08:13:47;44.80;;;29.50;;
14698;SDS011;7439;50.804;4.602;2023-02-08T08:16:15;37.33;;;27.50;;
14698;SDS011;7439;50.804;4.602;2023-02-08T08:18:42;35.77;;;28.37;;
14698;SDS011;7439;50.804;4.602;2023-02-08T08:21:09;39.00;;;28.30;;
14698;SDS011;7439;50.804;4.602;2023-02-08T08:23:37;33.93;;;26.00;;
14698;SDS011;7439;50.804;4.602;2023-02-08T08:26:05;34.87;;;26.27;;
14698;SDS011;7439;50.804;4.602;2023-02-08T08:28:33;51.60;;;47.07;;
14698;SDS011;7439;50.804;4.602;2023-02-08T08:31:02;36.20;;;32.50;;
14698;SDS011;7439;50.804;4.602;2023-02-08T08:33:29;29.30;;;25.43;;
14698;SDS011;7439;50.804;4.602;2023-02-08T08:35:57;25.83;;;23.07;;
14698;SDS011;7439;50.804;4.602;2023-02-08T08:38:24;27.70;;;21.93;;
14698;SDS011;7439;50.804;4.602;2023-02-08T08:40:52;28.23;;;22.60;;
14698;SDS011;7439;50.804;4.602;2023-02-08T08:43:19;27.93;;;22.70;;
14698;SDS011;7439;50.804;4.602;2023-02-08T08:45:47;29.90;;;22.77;;
14698;SDS011;7439;50.804;4.602;2023-02-08T08:48:15;29.30;;;22.73;;
14698;SDS011;7439;50.804;4.602;2023-02-08T08:50:43;25.00;;;21.30;;
14698;SDS011;7439;50.804;4.602;2023-02-08T08:53:10;27.07;;;23.20;;
14698;SDS011;7439;50.804;4.602;2023-02-08T08:55:37;23.37;;;20.77;;
14698;SDS011;7439;50.804;4.602;2023-02-08T08:58:05;26.23;;;21.30;;
14698;SDS011;7439;50.804;4.602;2023-02-08T09:00:32;28.30;;;24.33;;
14698;SDS011;7439;50.804;4.602;2023-02-08T09:03:00;28.13;;;23.43;;
14698;SDS011;7439;50.804;4.602;2023-02-08T09:05:28;27.63;;;23.23;;
14698;SDS011;7439;50.804;4.602;2023-02-08T09:07:56;26.43;;;22.00;;
14698;SDS011;7439;50.804;4.602;2023-02-08T09:10:25;25.80;;;21.73;;
14698;SDS011;7439;50.804;4.602;2023-02-08T09:12:52;27.00;;;24.30;;
14698;SDS011;7439;50.804;4.602;2023-02-08T09:15:20;25.33;;;22.70;;
14698;SDS011;7439;50.804;4.602;2023-02-08T09:17:47;24.77;;;22.20;;
14698;SDS011;7439;50.804;4.602;2023-02-08T09:20:14;25.87;;;23.30;;
14698;SDS011;7439;50.804;4.602;2023-02-08T09:22:43;29.47;;;26.37;;
14698;SDS011;7439;50.804;4.602;2023-02-08T09:25:11;28.97;;;25.77;;
14698;SDS011;7439;50.804;4.602;2023-02-08T09:27:38;24.83;;;22.43;;
14698;SDS011;7439;50.804;4.602;2023-02-08T09:30:05;24.50;;;21.23;;
14698;SDS011;7439;50.804;4.602;2023-02-08T09:32:33;28.50;;;25.83;;
14698;SDS011;7439;50.804;4.602;2023-02-08T09:35:00;23.63;;;21.37;;
14698;SDS011;7439;50.804;4.602;2023-02-08T09:37:28;25.93;;;23.30;;
14698;SDS011;7439;50.804;4.602;2023-02-08T09:39:57;23.87;;;21.47;;
14698;SDS011;7439;50.804;4.602;2023-02-08T09:42:28;26.17;;;23.53;;
14698;SDS011;7439;50.804;4.602;2023-02-08T09:45:01;27.37;;;24.30;;
14698;SDS011;7439;50.804;4.602;2023-02-08T09:47:32;27.00;;;24.20;;
14698;SDS011;7439;50.804;4.602;2023-02-08T09:50:00;30.13;;;23.80;;
14698;SDS011;7439;50.804;4.602;2023-02-08T09:52:32;25.70;;;22.10;;
14698;SDS011;7439;50.804;4.602;2023-02-08T09:55:03;23.53;;;21.10;;
14698;SDS011;7439;50.804;4.602;2023-02-08T09:57:36;24.20;;;21.90;;
14698;SDS011;7439;50.804;4.602;2023-02-08T10:00:05;24.87;;;22.27;;
14698;SDS011;7439;50.804;4.602;2023-02-08T10:02:36;24.07;;;21.10;;
14698;SDS011;7439;50.804;4.602;2023-02-08T10:05:06;23.67;;;21.17;;
14698;SDS011;7439;50.804;4.602;2023-02-08T10:07:34;23.40;;;21.00;;
14698;SDS011;7439;50.804;4.602;2023-02-08T10:10:04;22.67;;;20.07;;
14698;SDS011;7439;50.804;4.602;2023-02-08T10:12:36;19.53;;;16.73;;
14698;SDS011;7439;50.804;4.602;2023-02-08T10:15:13;19.57;;;17.67;;
14698;SDS011;7439;50.804;4.602;2023-02-08T10:17:45;19.03;;;17.17;;
14698;SDS011;7439;50.804;4.602;2023-02-08T10:20:22;104.47;;;95.03;;
14698;SDS011;7439;50.804;4.602;2023-02-08T10:22:53;22.50;;;20.73;;
14698;SDS011;7439;50.804;4.602;2023-02-08T10:25:48;16.83;;;15.03;;
14698;SDS011;7439;50.804;4.602;2023-02-08T10:28:26;16.37;;;14.83;;
14698;SDS011;7439;50.804;4.602;2023-02-08T10:30:58;17.63;;;15.23;;
14698;SDS011;7439;50.804;4.602;2023-02-08T10:33:30;273.43;;;95.20;;
14698;SDS011;7439;50.804;4.602;2023-02-08T10:35:58;330.83;;;316.03;;
14698;SDS011;7439;50.804;4.602;2023-02-08T10:38:26;291.53;;;272.60;;
14698;SDS011;7439;50.804;4.602;2023-02-08T10:40:56;243.00;;;232.37;;
14698;SDS011;7439;50.804;4.602;2023-02-08T10:43:27;202.07;;;193.53;;
14698;SDS011;7439;50.804;4.602;2023-02-08T10:45:57;116.83;;;111.33;;
14698;SDS011;7439;50.804;4.602;2023-02-08T10:48:30;71.77;;;67.77;;
14698;SDS011;7439;50.804;4.602;2023-02-08T10:51:01;130.23;;;124.33;;
14698;SDS011;7439;50.804;4.602;2023-02-08T10:53:28;32.47;;;30.30;;
14698;SDS011;7439;50.804;4.602;2023-02-08T10:55:58;17.97;;;16.40;;
14698;SDS011;7439;50.804;4.602;2023-02-08T10:58:26;15.40;;;13.77;;
14698;SDS011;7439;50.804;4.602;2023-02-08T11:00:54;13.67;;;12.47;;
14698;SDS011;7439;50.804;4.602;2023-02-08T11:03:23;46.73;;;43.97;;
14698;SDS011;7439;50.804;4.602;2023-02-08T11:05:51;121.23;;;87.70;;
14698;SDS011;7439;50.804;4.602;2023-02-08T11:08:19;21.00;;;19.60;;
14698;SDS011;7439;50.804;4.602;2023-02-08T11:10:54;67.37;;;61.53;;
14698;SDS011;7439;50.804;4.602;2023-02-08T11:13:25;30.13;;;27.53;;
14698;SDS011;7439;50.804;4.602;2023-02-08T11:15:54;174.87;;;30.27;;
14698;SDS011;7439;50.804;4.602;2023-02-08T11:18:22;61.67;;;58.67;;
14698;SDS011;7439;50.804;4.602;2023-02-08T11:20:51;75.23;;;71.73;;
14698;SDS011;7439;50.804;4.602;2023-02-08T11:23:20;188.47;;;137.07;;
14698;SDS011;7439;50.804;4.602;2023-02-08T11:25:48;8.93;;;7.80;;
14698;SDS011;7439;50.804;4.602;2023-02-08T11:28:25;8.90;;;7.13;;
14698;SDS011;7439;50.804;4.602;2023-02-08T11:30:56;7.57;;;5.73;;
14698;SDS011;7439;50.804;4.602;2023-02-08T11:33:25;8.07;;;6.00;;
14698;SDS011;7439;50.804;4.602;2023-02-08T11:35:53;6.97;;;6.30;;
14698;SDS011;7439;50.804;4.602;2023-02-08T11:38:21;7.43;;;6.37;;
14698;SDS011;7439;50.804;4.602;2023-02-08T11:40:52;6.27;;;5.57;;
14698;SDS011;7439;50.804;4.602;2023-02-08T11:43:21;6.30;;;5.37;;
14698;SDS011;7439;50.804;4.602;2023-02-08T11:45:50;6.30;;;5.70;;
14698;SDS011;7439;50.804;4.602;2023-02-08T11:48:20;5.30;;;4.80;;
14698;SDS011;7439;50.804;4.602;2023-02-08T11:50:51;6.57;;;5.63;;
14698;SDS011;7439;50.804;4.602;2023-02-08T11:53:19;6.03;;;5.43;;
14698;SDS011;7439;50.804;4.602;2023-02-08T11:56:00;11.30;;;5.10;;
14698;SDS011;7439;50.804;4.602;2023-02-08T11:58:27;7.73;;;5.97;;
14698;SDS011;7439;50.804;4.602;2023-02-08T12:01:00;6.10;;;5.50;;
14698;SDS011;7439;50.804;4.602;2023-02-08T12:03:29;6.17;;;5.60;;
14698;SDS011;7439;50.804;4.602;2023-02-08T12:06:12;6.60;;;5.73;;
14698;SDS011;7439;50.804;4.602;2023-02-08T12:08:46;6.80;;;5.73;;
14698;SDS011;7439;50.804;4.602;2023-02-08T12:11:17;6.23;;;5.63;;
14698;SDS011;7439;50.804;4.602;2023-02-08T12:13:53;6.73;;;5.97;;
14698;SDS011;7439;50.804;4.602;2023-02-08T12:16:36;6.40;;;5.80;;
14698;SDS011;7439;50.804;4.602;2023-02-08T12:19:18;6.43;;;5.53;;
14698;SDS011;7439;50.804;4.602;2023-02-08T12:21:54;6.47;;;5.77;;
14698;SDS011;7439;50.804;4.602;2023-02-08T12:24:24;5.90;;;5.40;;
14698;SDS011;7439;50.804;4.602;2023-02-08T12:26:59;6.33;;;5.40;;
14698;SDS011;7439;50.804;4.602;2023-02-08T12:29:33;5.90;;;5.30;;
14698;SDS011;7439;50.804;4.602;2023-02-08T12:34:53;6.00;;;5.50;;
14698;SDS011;7439;50.804;4.602;2023-02-08T12:37:27;5.83;;;5.33;;
14698;SDS011;7439;50.804;4.602;2023-02-08T12:40:18;5.97;;;5.37;;
14698;SDS011;7439;50.804;4.602;2023-02-08T12:43:08;5.67;;;5.10;;
14698;SDS011;7439;50.804;4.602;2023-02-08T12:48:27;10.27;;;5.50;;
14698;SDS011;7439;50.804;4.602;2023-02-08T12:51:00;6.97;;;4.70;;
14698;SDS011;7439;50.804;4.602;2023-02-08T12:53:30;4.70;;;4.30;;
14698;SDS011;7439;50.804;4.602;2023-02-08T12:56:01;5.30;;;4.80;;
14698;SDS011;7439;50.804;4.602;2023-02-08T12:58:29;5.77;;;5.17;;
14698;SDS011;7439;50.804;4.602;2023-02-08T13:00:59;4.73;;;4.33;;
14698;SDS011;7439;50.804;4.602;2023-02-08T13:03:32;5.50;;;4.73;;
14698;SDS011;7439;50.804;4.602;2023-02-08T13:06:02;7.90;;;5.30;;
14698;SDS011;7439;50.804;4.602;2023-02-08T13:08:31;5.50;;;5.00;;
14698;SDS011;7439;50.804;4.602;2023-02-08T13:11:01;4.90;;;4.47;;
14698;SDS011;7439;50.804;4.602;2023-02-08T13:13:29;6.00;;;5.40;;
14698;SDS011;7439;50.804;4.602;2023-02-08T13:16:00;5.13;;;4.63;;
14698;SDS011;7439;50.804;4.602;2023-02-08T13:18:30;5.37;;;4.50;;
14698;SDS011;7439;50.804;4.602;2023-02-08T13:20:59;5.43;;;4.93;;
14698;SDS011;7439;50.804;4.602;2023-02-08T13:23:32;5.40;;;4.93;;
14698;SDS011;7439;50.804;4.602;2023-02-08T13:26:02;8.27;;;5.10;;
14698;SDS011;7439;50.804;4.602;2023-02-08T13:28:32;5.27;;;4.83;;
14698;SDS011;7439;50.804;4.602;2023-02-08T13:31:00;5.90;;;5.37;;
14698;SDS011;7439;50.804;4.602;2023-02-08T13:33:30;5.97;;;5.37;;
14698;SDS011;7439;50.804;4.602;2023-02-08T13:35:58;5.63;;;5.03;;
14698;SDS011;7439;50.804;4.602;2023-02-08T13:38:27;5.87;;;4.90;;
14698;SDS011;7439;50.804;4.602;2023-02-08T13:41:03;7.00;;;4.97;;
14698;SDS011;7439;50.804;4.602;2023-02-08T13:43:34;5.90;;;4.87;;
14698;SDS011;7439;50.804;4.602;2023-02-08T13:46:03;6.07;;;5.33;;
14698;SDS011;7439;50.804;4.602;2023-02-08T13:48:39;7.60;;;5.10;;
14698;SDS011;7439;50.804;4.602;2023-02-08T13:51:10;5.57;;;5.03;;
14698;SDS011;7439;50.804;4.602;2023-02-08T13:54:07;5.37;;;4.87;;
14698;SDS011;7439;50.804;4.602;2023-02-08T13:56:38;5.13;;;4.73;;
14698;SDS011;7439;50.804;4.602;2023-02-08T13:59:23;6.23;;;5.40;;
14698;SDS011;7439;50.804;4.602;2023-02-08T14:04:43;6.10;;;5.07;;
14698;SDS011;7439;50.804;4.602;2023-02-08T14:07:12;8.80;;;6.33;;
14698;SDS011;7439;50.804;4.602;2023-02-08T14:09:46;6.47;;;5.50;;
14698;SDS011;7439;50.804;4.602;2023-02-08T14:12:20;5.50;;;5.00;;
14698;SDS011;7439;50.804;4.602;2023-02-08T14:17:35;5.50;;;5.00;;
14698;SDS011;7439;50.804;4.602;2023-02-08T14:20:04;6.07;;;5.43;;
14698;SDS011;7439;50.804;4.602;2023-02-08T14:22:33;6.03;;;5.43;;
14698;SDS011;7439;50.804;4.602;2023-02-08T14:25:03;5.60;;;5.00;;
14698;SDS011;7439;50.804;4.602;2023-02-08T14:27:34;5.07;;;4.57;;
14698;SDS011;7439;50.804;4.602;2023-02-08T14:30:04;5.33;;;4.83;;
14698;SDS011;7439;50.804;4.602;2023-02-08T14:32:32;5.20;;;4.70;;
14698;SDS011;7439;50.804;4.602;2023-02-08T14:35:01;5.63;;;5.13;;
14698;SDS011;7439;50.804;4.602;2023-02-08T14:37:30;4.33;;;3.90;;
14698;SDS011;7439;50.804;4.602;2023-02-08T14:42:56;6.60;;;5.37;;
14698;SDS011;7439;50.804;4.602;2023-02-08T14:45:27;5.93;;;5.37;;
14698;SDS011;7439;50.804;4.602;2023-02-08T14:48:15;5.87;;;5.27;;
14698;SDS011;7439;50.804;4.602;2023-02-08T14:50:54;5.53;;;4.90;;
14698;SDS011;7439;50.804;4.602;2023-02-08T14:53:28;7.97;;;5.80;;
14698;SDS011;7439;50.804;4.602;2023-02-08T14:55:58;5.67;;;5.17;;
14698;SDS011;7439;50.804;4.602;2023-02-08T14:58:31;5.37;;;4.77;;
14698;SDS011;7439;50.804;4.602;2023-02-08T15:01:00;5.03;;;4.53;;
14698;SDS011;7439;50.804;4.602;2023-02-08T15:03:29;6.67;;;5.27;;
14698;SDS011;7439;50.804;4.602;2023-02-08T15:06:07;6.67;;;4.60;;
14698;SDS011;7439;50.804;4.602;2023-02-08T15:08:39;5.77;;;4.17;;
14698;SDS011;7439;50.804;4.602;2023-02-08T15:11:15;4.83;;;4.27;;
14698;SDS011;7439;50.804;4.602;2023-02-08T15:13:45;6.27;;;4.77;;